Time;durP1;ratioP1;P1;durP2;ratioP2;P2;SDS_P1;SDS_P2;PMS_P1;PMS_P2;Temp;Humidity;BMP_temperature;BMP_pressure;BME280_temperature;BME280_humidity;BME280_pressure;Samples;Min_cycle;Max_cycle;Signal;HPM_P1;HPM_P2
2023/05/13 00:00:56;;;;;;;2.05;1.58;;;13.90;99.90;;;;;;5054530;28;20480;-76
2023/05/13 00:03:22;;;;;;;8.52;1.85;;;13.90;99.90;;;;;;5054587;28;20033;-78
2023/05/13 00:05:48;;;;;;;3.10;1.67;;;13.90;99.90;;;;;;5054271;28;20035;-76
2023/05/13 00:08:13;;;;;;;3.75;1.98;;;13.80;99.90;;;;;;5036606;28;20025;-78
2023/05/13 00:10:39;;;;;;;4.00;1.98;;;13.80;99.90;;;;;;5054306;28;20021;-76
2023/05/13 00:13:04;;;;;;;3.55;1.30;;;13.70;99.90;;;;;;5054135;28;20025;-78
2023/05/13 00:15:30;;;;;;;2.03;1.38;;;13.70;99.90;;;;;;5036602;28;20028;-78
2023/05/13 00:17:56;;;;;;;3.00;1.63;;;13.50;99.90;;;;;;5036393;28;20021;-78
2023/05/13 00:20:22;;;;;;;4.20;1.70;;;13.60;99.90;;;;;;5036439;28;20377;-78
2023/05/13 00:22:47;;;;;;;2.50;1.23;;;13.50;99.90;;;;;;5054054;28;20032;-78
2023/05/13 00:25:13;;;;;;;4.57;1.38;;;13.40;99.90;;;;;;5054241;28;20070;-77
2023/05/13 00:27:38;;;;;;;4.18;1.85;;;13.40;99.90;;;;;;5054354;28;20495;-78
2023/05/13 00:30:04;;;;;;;2.17;1.50;;;13.80;99.90;;;;;;5054141;28;20049;-78
2023/05/13 00:32:30;;;;;;;5.72;1.30;;;13.30;99.90;;;;;;5054154;28;20025;-78
2023/05/13 00:34:56;;;;;;;3.72;1.90;;;13.30;99.90;;;;;;5037006;28;20017;-78
2023/05/13 00:37:22;;;;;;;4.38;1.42;;;13.20;99.90;;;;;;5054580;28;20028;-78
2023/05/13 00:39:47;;;;;;;3.45;1.35;;;13.10;99.90;;;;;;5054572;28;20025;-78
2023/05/13 00:42:14;;;;;;;6.35;1.33;;;13.90;99.90;;;;;;5036780;28;20020;-78
2023/05/13 00:44:39;;;;;;;4.43;1.70;;;13.10;99.90;;;;;;5054818;28;20034;-78
2023/05/13 00:47:05;;;;;;;2.20;1.23;;;13.00;99.90;;;;;;5053762;28;20081;-78
2023/05/13 00:49:34;;;;;;;4.25;1.30;;;13.00;99.90;;;;;;5036171;28;20048;-78
2023/05/13 00:52:01;;;;;;;2.03;1.30;;;13.00;99.90;;;;;;5036140;28;20040;-78
2023/05/13 00:54:30;;;;;;;3.55;0.98;;;12.90;99.90;;;;;;5055053;28;20116;-77
2023/05/13 00:56:56;;;;;;;3.85;1.00;;;12.90;99.90;;;;;;5053517;28;20021;-77
2023/05/13 00:59:24;;;;;;;2.85;1.42;;;12.90;99.90;;;;;;5053324;28;20025;-77
2023/05/13 01:02:15;;;;;;;2.70;0.90;;;12.90;99.90;;;;;;5035395;28;20025;-77
2023/05/13 01:04:41;;;;;;;2.50;0.68;;;12.70;99.90;;;;;;5035837;28;20167;-77
2023/05/13 01:07:32;;;;;;;4.00;0.80;;;12.70;99.90;;;;;;5035445;28;20060;-77
2023/05/13 01:10:14;;;;;;;1.63;0.80;;;12.70;99.90;;;;;;5053656;28;20029;-77
2023/05/13 01:12:45;;;;;;;2.30;1.25;;;12.50;99.90;;;;;;5053890;28;20021;-77
2023/05/13 01:15:15;;;;;;;1.92;0.85;;;12.50;99.90;;;;;;5053086;28;20408;-77
2023/05/13 01:18:03;;;;;;;3.05;1.00;;;12.40;99.90;;;;;;5053248;28;20032;-77
2023/05/13 01:20:30;;;;;;;2.92;1.20;;;12.30;99.90;;;;;;5053474;28;20074;-77
2023/05/13 01:22:56;;;;;;;2.17;1.00;;;12.20;99.90;;;;;;5035346;28;20032;-77
2023/05/13 01:25:22;;;;;;;2.08;0.90;;;12.60;99.90;;;;;;5053789;28;20108;-77
2023/05/13 01:27:49;;;;;;;3.42;1.20;;;12.00;99.90;;;;;;5053018;28;20020;-76
2023/05/13 01:30:15;;;;;;;4.97;1.38;;;12.00;99.90;;;;;;5053190;28;20025;-77
2023/05/13 01:32:40;;;;;;;4.53;1.33;;;12.00;99.90;;;;;;5053108;28;20101;-77
2023/05/13 01:35:09;;;;;;;5.35;1.50;;;11.90;99.90;;;;;;5035111;28;20036;-77
2023/05/13 01:37:36;;;;;;;3.72;1.10;;;11.80;99.90;;;;;;5035316;28;20071;-77
2023/05/13 01:40:01;;;;;;;2.25;1.10;;;11.70;99.90;;;;;;5035065;28;20017;-76
2023/05/13 01:42:28;;;;;;;2.08;1.40;;;11.70;99.90;;;;;;5053528;28;20040;-77
2023/05/13 01:44:54;;;;;;;2.65;0.85;;;12.80;99.90;;;;;;5052746;28;20025;-77
2023/05/13 01:47:20;;;;;;;2.85;1.45;;;11.50;99.90;;;;;;5052825;28;20484;-76
2023/05/13 01:49:45;;;;;;;5.05;1.38;;;11.50;99.90;;;;;;5052800;28;20450;-77
2023/05/13 01:52:11;;;;;;;2.72;1.40;;;11.50;99.90;;;;;;5052660;28;20029;-76
2023/05/13 01:54:36;;;;;;;4.57;1.70;;;11.40;99.90;;;;;;5052590;28;20032;-77
2023/05/13 01:57:02;;;;;;;4.32;1.25;;;11.30;99.90;;;;;;5052666;28;20504;-76
2023/05/13 01:59:28;;;;;;;2.10;1.40;;;11.30;99.90;;;;;;5052650;28;20025;-76
2023/05/13 02:01:53;;;;;;;4.75;1.48;;;12.80;99.90;;;;;;5052923;28;20082;-77
2023/05/13 02:04:20;;;;;;;3.03;1.50;;;11.20;99.90;;;;;;5037319;28;20033;-77
2023/05/13 02:06:46;;;;;;;4.03;1.70;;;11.20;99.90;;;;;;5038496;28;20029;-77
2023/05/13 02:09:12;;;;;;;6.35;2.38;;;11.10;99.90;;;;;;5038361;28;20050;-77
2023/05/13 02:11:38;;;;;;;3.92;1.80;;;11.10;99.90;;;;;;5056291;28;20052;-77
2023/05/13 02:14:03;;;;;;;2.40;1.30;;;11.10;99.90;;;;;;5056167;28;20480;-77
2023/05/13 02:16:30;;;;;;;6.13;3.05;;;11.00;99.90;;;;;;5056194;28;20024;-76
2023/05/13 02:18:55;;;;;;;1.90;1.65;;;11.00;99.90;;;;;;5038161;28;20053;-77
2023/05/13 02:21:21;;;;;;;5.93;2.05;;;11.00;99.90;;;;;;5056050;28;20081;-76
2023/05/13 02:23:47;;;;;;;3.97;1.23;;;11.00;99.90;;;;;;5056216;28;20027;-76
2023/05/13 02:26:12;;;;;;;5.18;1.80;;;11.00;99.90;;;;;;5055886;28;20096;-77
2023/05/13 02:28:38;;;;;;;3.10;1.95;;;11.00;99.90;;;;;;5055862;28;20021;-76
2023/05/13 02:31:03;;;;;;;3.63;2.10;;;11.00;99.90;;;;;;5037928;28;20119;-76
2023/05/13 02:33:29;;;;;;;3.70;1.70;;;10.90;99.90;;;;;;5037776;28;20017;-76
2023/05/13 02:35:55;;;;;;;5.38;2.08;;;10.90;99.90;;;;;;5038017;28;20013;-77
2023/05/13 02:38:20;;;;;;;8.10;2.05;;;10.90;99.90;;;;;;5055728;28;20469;-77
2023/05/13 02:40:47;;;;;;;3.33;2.38;;;10.90;99.90;;;;;;5055773;28;20116;-77
2023/05/13 02:43:12;;;;;;;8.18;2.60;;;11.20;99.90;;;;;;5037693;28;20025;-77
2023/05/13 02:45:40;;;;;;;3.67;1.77;;;10.90;99.90;;;;;;5055520;28;20400;-77
2023/05/13 02:48:06;;;;;;;3.97;2.53;;;10.90;99.90;;;;;;5037532;28;20051;-77
2023/05/13 02:50:31;;;;;;;6.45;2.63;;;10.80;99.90;;;;;;5055969;28;20055;-77
2023/05/13 02:52:57;;;;;;;4.22;2.63;;;10.80;99.90;;;;;;5056512;28;20472;-77
2023/05/13 02:55:22;;;;;;;4.10;2.60;;;10.80;99.90;;;;;;5056593;28;20028;-78
2023/05/13 02:57:48;;;;;;;3.35;2.60;;;10.70;99.90;;;;;;5056349;28;20074;-78
2023/05/13 03:00:14;;;;;;;3.22;2.60;;;10.70;99.90;;;;;;5056199;28;20491;-77
2023/05/13 03:02:40;;;;;;;5.05;2.55;;;10.80;99.90;;;;;;5041435;28;20479;-78
2023/05/13 03:05:06;;;;;;;6.90;2.60;;;10.80;99.90;;;;;;5059465;28;20075;-78
2023/05/13 03:07:32;;;;;;;5.60;3.28;;;10.70;99.90;;;;;;5059518;28;20031;-78
2023/05/13 03:09:58;;;;;;;5.90;2.78;;;10.70;99.90;;;;;;5059151;28;20017;-78
2023/05/13 03:12:24;;;;;;;7.03;3.10;;;;;;;;;;5042067;28;20071;-78
2023/05/13 03:14:50;;;;;;;5.28;3.25;;;10.70;99.90;;;;;;5058431;28;20025;-78
2023/05/13 03:17:15;;;;;;;4.15;2.90;;;10.70;99.90;;;;;;5041977;28;20017;-78
2023/05/13 03:19:41;;;;;;;6.10;3.28;;;10.70;99.90;;;;;;5059121;28;20025;-78
2023/05/13 03:22:06;;;;;;;6.18;3.40;;;10.70;99.90;;;;;;5041021;28;20028;-78
2023/05/13 03:24:32;;;;;;;7.28;3.45;;;10.80;99.90;;;;;;5041061;28;20021;-78
2023/05/13 03:26:58;;;;;;;8.35;3.78;;;10.80;99.90;;;;;;5059170;28;20029;-78
2023/05/13 03:29:23;;;;;;;7.05;4.13;;;10.80;99.90;;;;;;5059007;28;20075;-78
2023/05/13 03:31:50;;;;;;;6.72;3.95;;;10.80;99.90;;;;;;5059488;28;20061;-78
2023/05/13 03:34:15;;;;;;;8.98;4.70;;;10.80;99.90;;;;;;5059137;28;20028;-78
2023/05/13 03:36:41;;;;;;;9.52;4.57;;;10.70;99.90;;;;;;5058880;28;20029;-78
2023/05/13 03:39:07;;;;;;;7.50;4.18;;;10.80;99.90;;;;;;5059010;28;20025;-78
2023/05/13 03:41:33;;;;;;;8.57;4.32;;;10.70;99.90;;;;;;5058795;28;20490;-78
2023/05/13 03:43:58;;;;;;;5.50;3.42;;;10.70;99.90;;;;;;5040239;28;20107;-78
2023/05/13 03:46:26;;;;;;;5.75;4.10;;;10.70;99.90;;;;;;5058488;28;20057;-78
2023/05/13 03:48:53;;;;;;;8.13;3.75;;;10.70;99.90;;;;;;5058370;28;20039;-78
2023/05/13 03:51:19;;;;;;;7.18;4.55;;;10.70;99.90;;;;;;5040164;28;20025;-78
2023/05/13 03:53:45;;;;;;;7.53;4.75;;;10.60;99.90;;;;;;5040104;28;20558;-78
2023/05/13 03:56:10;;;;;;;8.68;5.45;;;10.60;99.90;;;;;;5040526;28;20017;-78
2023/05/13 03:58:36;;;;;;;10.77;5.65;;;10.60;99.90;;;;;;5057846;28;20029;-78
2023/05/13 04:01:01;;;;;;;12.65;5.20;;;10.60;99.90;;;;;;5040572;28;20376;-78
2023/05/13 04:03:27;;;;;;;8.48;4.88;;;10.50;99.90;;;;;;5057171;28;20033;-78
2023/05/13 04:05:53;;;;;;;11.70;5.55;;;10.50;99.90;;;;;;5039409;28;20618;-78
2023/05/13 04:08:18;;;;;;;8.95;5.10;;;10.50;99.90;;;;;;5057318;28;20426;-78
2023/05/13 04:10:44;;;;;;;8.55;5.75;;;10.50;99.90;;;;;;5057732;28;20047;-77
2023/05/13 04:13:10;;;;;;;13.75;6.13;;;10.50;99.90;;;;;;5039547;28;20036;-78
2023/05/13 04:15:36;;;;;;;11.15;5.75;;;10.50;99.90;;;;;;5039030;28;20025;-77
2023/05/13 04:18:01;;;;;;;12.02;6.00;;;10.60;99.90;;;;;;5057673;28;20021;-78
2023/05/13 04:20:28;;;;;;;15.45;6.78;;;10.60;99.90;;;;;;5039116;28;20083;-77
2023/05/13 04:22:53;;;;;;;10.02;5.65;;;10.70;99.90;;;;;;5056310;28;20021;-77
2023/05/13 04:25:19;;;;;;;9.55;6.40;;;11.70;99.90;;;;;;5056638;28;20434;-77
2023/05/13 04:27:46;;;;;;;8.13;5.65;;;10.70;99.90;;;;;;5055911;28;20116;-78
2023/05/13 04:30:12;;;;;;;10.00;6.25;;;10.70;99.90;;;;;;5056695;28;20021;-77
2023/05/13 04:32:38;;;;;;;11.48;6.80;;;10.80;99.90;;;;;;5055831;28;20074;-77
2023/05/13 04:35:05;;;;;;;10.55;6.35;;;10.80;99.90;;;;;;5037592;28;20123;-77
2023/05/13 04:37:31;;;;;;;10.73;6.43;;;10.90;99.90;;;;;;5037836;28;20092;-77
2023/05/13 04:39:56;;;;;;;10.48;5.88;;;10.90;99.90;;;;;;5038375;28;20045;-77
2023/05/13 04:42:22;;;;;;;12.02;5.50;;;10.90;99.90;;;;;;5056482;28;20430;-78
2023/05/13 04:44:47;;;;;;;8.57;5.38;;;10.90;99.90;;;;;;5057439;28;20084;-78
2023/05/13 04:47:13;;;;;;;8.45;5.28;;;11.00;99.90;;;;;;5038979;28;20060;-77
2023/05/13 04:49:38;;;;;;;8.57;4.80;;;11.10;99.90;;;;;;5054863;28;20078;-77
2023/05/13 04:52:05;;;;;;;9.68;5.65;;;11.10;99.90;;;;;;5054804;28;20021;-77
2023/05/13 04:54:30;;;;;;;9.63;5.40;;;11.20;99.90;;;;;;5036937;28;20033;-77
2023/05/13 04:56:56;;;;;;;9.00;5.03;;;11.20;99.90;;;;;;5055525;28;20024;-77
2023/05/13 04:59:22;;;;;;;13.25;5.93;;;11.40;99.90;;;;;;5057520;28;20021;-77
2023/05/13 05:01:48;;;;;;;8.48;5.30;;;11.40;99.90;;;;;;5056002;28;20029;-77
2023/05/13 05:04:13;;;;;;;8.38;4.40;;;11.50;99.90;;;;;;5038406;28;20096;-77
2023/05/13 05:06:39;;;;;;;8.02;4.47;;;11.60;99.90;;;;;;5056534;28;20053;-78
2023/05/13 05:09:05;;;;;;;7.65;4.85;;;11.70;99.90;;;;;;5056060;28;20100;-77
2023/05/13 05:11:30;;;;;;;7.70;4.50;;;11.70;99.90;;;;;;5056227;28;20511;-77
2023/05/13 05:13:56;;;;;;;7.80;3.90;;;11.80;99.90;;;;;;5038334;28;20021;-77
2023/05/13 05:16:21;;;;;;;6.82;4.25;;;11.90;99.90;;;;;;5056445;28;20014;-77
2023/05/13 05:18:47;;;;;;;8.40;4.38;;;12.00;99.90;;;;;;5055051;28;20100;-77
2023/05/13 05:21:12;;;;;;;7.90;4.53;;;12.00;99.90;;;;;;5053748;28;20495;-77
2023/05/13 05:23:38;;;;;;;8.25;4.70;;;12.10;99.90;;;;;;5053695;28;20108;-77
2023/05/13 05:26:04;;;;;;;7.63;3.80;;;12.20;99.90;;;;;;5054007;28;20440;-77
2023/05/13 05:28:30;;;;;;;7.63;4.28;;;12.30;99.90;;;;;;5035448;28;20537;-77
2023/05/13 05:30:56;;;;;;;8.93;4.05;;;12.30;99.90;;;;;;5053316;28;20033;-76
2023/05/13 05:33:22;;;;;;;6.53;3.55;;;12.40;99.90;;;;;;5053121;28;20025;-76
2023/05/13 05:35:47;;;;;;;5.38;3.97;;;14.10;99.90;;;;;;5053161;28;20060;-76
2023/05/13 05:38:13;;;;;;;7.28;3.72;;;12.60;99.90;;;;;;5053736;28;20021;-76
2023/05/13 05:40:41;;;;;;;5.13;3.30;;;13.10;99.90;;;;;;5056964;28;20029;-76
2023/05/13 05:43:07;;;;;;;7.05;2.97;;;12.70;99.90;;;;;;5038999;28;20426;-76
2023/05/13 05:45:36;;;;;;;6.68;3.95;;;;;;;;;;5056730;28;20028;-76
2023/05/13 05:48:05;;;;;;;7.50;3.28;;;13.00;99.90;;;;;;5056858;28;20029;-74
2023/05/13 05:50:32;;;;;;;9.80;3.55;;;13.00;99.90;;;;;;5056836;28;20017;-75
2023/05/13 05:52:58;;;;;;;7.43;3.38;;;13.10;99.90;;;;;;5056713;28;20120;-75
2023/05/13 05:55:24;;;;;;;5.05;3.20;;;13.20;99.90;;;;;;5057058;28;20116;-77
2023/05/13 05:57:50;;;;;;;7.38;3.50;;;13.40;99.90;;;;;;5057489;28;20155;-77
2023/05/13 06:00:16;;;;;;;7.15;3.83;;;13.40;99.90;;;;;;5058057;28;20032;-77
2023/05/13 06:02:42;;;;;;;7.93;3.45;;;13.50;99.90;;;;;;5039470;28;20021;-77
2023/05/13 06:05:08;;;;;;;7.60;3.90;;;13.70;99.90;;;;;;5056708;28;20024;-76
2023/05/13 06:07:33;;;;;;;10.45;3.83;;;13.70;99.90;;;;;;5039225;28;20040;-77
2023/05/13 06:09:59;;;;;;;7.63;3.25;;;14.30;99.90;;;;;;5057333;28;20025;-77
2023/05/13 06:12:24;;;;;;;4.70;3.13;;;13.80;99.90;;;;;;5057274;28;20081;-77
2023/05/13 06:14:50;;;;;;;6.80;3.35;;;14.00;99.90;;;;;;5038745;28;20103;-77
2023/05/13 06:17:16;;;;;;;8.13;3.20;;;14.10;99.90;;;;;;5038768;28;20112;-77
2023/05/13 06:19:41;;;;;;;5.80;2.72;;;14.10;99.90;;;;;;5056907;28;20070;-77
2023/05/13 06:22:10;;;;;;;5.43;3.25;;;14.20;99.90;;;;;;5057177;28;20025;-77
2023/05/13 06:24:37;;;;;;;;;;;14.90;99.90;;;;;;5056725;28;20392;-77
2023/05/13 06:27:03;;;;;;;6.35;3.13;;;14.40;99.90;;;;;;5038428;28;20004;-74
2023/05/13 06:29:29;;;;;;;8.27;2.70;;;14.50;99.90;;;;;;5055996;28;20054;-74
2023/05/13 06:31:55;;;;;;;4.25;2.90;;;14.60;99.90;;;;;;5055941;28;20028;-74
2023/05/13 06:34:21;;;;;;;9.45;3.25;;;14.60;99.90;;;;;;5055987;28;20419;-74
2023/05/13 06:36:47;;;;;;;6.45;2.33;;;14.80;99.90;;;;;;5055920;28;20037;-74
2023/05/13 06:39:12;;;;;;;4.47;2.17;;;14.90;99.90;;;;;;5037970;28;20045;-74
2023/05/13 06:41:39;;;;;;;5.72;2.65;;;15.00;99.90;;;;;;5055720;28;20391;-74
2023/05/13 06:44:05;;;;;;;9.13;2.75;;;16.50;99.90;;;;;;5055884;28;20048;-74
2023/05/13 06:46:31;;;;;;;6.40;3.00;;;15.10;99.90;;;;;;5055626;28;20480;-74
2023/05/13 06:48:57;;;;;;;7.60;2.53;;;15.20;99.90;;;;;;5055677;28;20036;-74
2023/05/13 06:51:23;;;;;;;4.25;2.95;;;15.30;99.90;;;;;;5036687;28;20032;-74
2023/05/13 06:53:48;;;;;;;4.78;2.25;;;15.40;99.90;;;;;;5055781;28;20523;-74
2023/05/13 06:56:14;;;;;;;6.85;2.42;;;15.50;99.90;;;;;;5055749;28;20013;-74
2023/05/13 06:58:39;;;;;;;4.60;2.35;;;15.60;99.90;;;;;;5055609;28;20028;-75
2023/05/13 07:01:05;;;;;;;4.70;2.60;;;15.70;99.90;;;;;;5055669;28;20107;-74
2023/05/13 07:03:31;;;;;;;6.85;2.97;;;15.80;99.90;;;;;;5055384;28;20013;-74
2023/05/13 07:05:56;;;;;;;7.57;2.78;;;15.90;99.90;;;;;;5055522;28;20399;-74
2023/05/13 07:08:22;;;;;;;9.43;3.22;;;16.00;99.90;;;;;;5037453;28;20029;-75
2023/05/13 07:10:47;;;;;;;5.55;2.70;;;16.00;99.90;;;;;;5056028;28;20078;-74
2023/05/13 07:13:13;;;;;;;5.18;2.45;;;16.10;99.90;;;;;;5037675;28;20033;-74
2023/05/13 07:15:39;;;;;;;5.68;2.75;;;16.20;99.90;;;;;;5055518;28;20025;-74
2023/05/13 07:18:04;;;;;;;6.53;3.00;;;16.30;99.90;;;;;;5055122;28;20029;-74
2023/05/13 07:20:30;;;;;;;4.93;2.47;;;16.40;99.90;;;;;;5055261;28;20468;-74
2023/05/13 07:22:56;;;;;;;3.40;2.28;;;16.70;99.90;;;;;;5055017;28;20017;-74
2023/05/13 07:25:21;;;;;;;3.10;1.83;;;16.60;99.90;;;;;;5055089;28;20579;-74
2023/05/13 07:27:47;;;;;;;6.03;2.58;;;16.70;99.90;;;;;;5054992;28;20104;-74
2023/05/13 07:30:13;;;;;;;2.95;2.03;;;16.60;99.90;;;;;;5037158;28;20056;-74
2023/05/13 07:32:39;;;;;;;10.77;2.67;;;16.70;99.90;;;;;;5055428;28;20103;-74
2023/05/13 07:35:05;;;;;;;4.13;2.38;;;16.80;99.90;;;;;;5054899;28;20118;-74
2023/05/13 07:37:35;;;;;;;4.90;2.35;;;17.10;99.90;;;;;;5054771;28;20025;-75
2023/05/13 07:40:01;;;;;;;3.70;1.95;;;17.00;99.90;;;;;;5054698;28;20017;-75
2023/05/13 07:42:28;;;;;;;4.85;2.55;;;17.20;99.90;;;;;;5054712;28;20075;-74
2023/05/13 07:44:55;;;;;;;3.40;2.00;;;17.20;99.90;;;;;;5054589;28;20017;-74
2023/05/13 07:47:20;;;;;;;3.67;2.13;;;17.60;99.90;;;;;;5055090;28;20028;-75
2023/05/13 07:49:46;;;;;;;2.20;1.23;;;17.60;99.90;;;;;;5055210;28;20029;-74
2023/05/13 07:52:11;;;;;;;2.25;1.75;;;17.70;99.90;;;;;;5036732;28;20112;-75
2023/05/13 07:54:37;;;;;;;5.65;1.70;;;17.70;99.90;;;;;;5055016;28;20537;-74
2023/05/13 07:57:03;;;;;;;6.50;2.30;;;17.60;99.90;;;;;;5054677;28;20029;-74
2023/05/13 07:59:28;;;;;;;3.75;2.10;;;17.50;99.90;;;;;;5054439;28;20092;-74
2023/05/13 08:01:54;;;;;;;4.22;1.80;;;17.60;99.90;;;;;;5054094;28;20029;-74
2023/05/13 08:04:20;;;;;;;2.80;1.75;;;17.90;99.90;;;;;;5054299;28;20430;-74
2023/05/13 08:06:45;;;;;;;3.15;1.52;;;17.80;99.90;;;;;;5054820;28;20032;-74
2023/05/13 08:09:11;;;;;;;6.28;1.52;;;17.90;99.90;;;;;;5054213;28;20021;-74
2023/05/13 08:11:37;;;;;;;3.90;1.80;;;18.20;99.90;;;;;;5037132;28;20048;-75
2023/05/13 08:14:04;;;;;;;4.03;1.33;;;18.30;99.90;;;;;;5036265;28;20562;-74
2023/05/13 08:16:30;;;;;;;3.67;1.20;;;18.40;99.90;;;;;;5036367;28;20112;-76
2023/05/13 08:18:56;;;;;;;3.72;1.73;;;18.50;99.90;;;;;;5054122;28;20449;-76
2023/05/13 08:21:22;;;;;;;3.83;2.10;;;19.10;99.90;;;;;;5054242;28;20023;-75
2023/05/13 08:23:50;;;;;;;4.28;1.55;;;;;;;;;;5053975;28;20111;-75
2023/05/13 08:26:15;;;;;;;2.80;1.27;;;19.00;99.90;;;;;;5035989;28;20029;-75
2023/05/13 08:28:41;;;;;;;3.13;1.27;;;19.20;99.90;;;;;;5054122;28;20391;-75
2023/05/13 08:31:07;;;;;;;7.32;1.42;;;19.20;99.90;;;;;;5053896;28;20032;-75
2023/05/13 08:33:33;;;;;;;6.22;1.52;;;19.30;99.90;;;;;;5054321;28;20104;-75
2023/05/13 08:35:59;;;;;;;3.03;1.30;;;20.60;99.90;;;;;;5053902;28;20430;-75
2023/05/13 08:38:25;;;;;;;2.95;1.92;;;19.50;99.90;;;;;;5053680;28;20021;-75
2023/05/13 08:40:51;;;;;;;4.75;1.50;;;19.60;99.90;;;;;;5035731;28;20499;-75
2023/05/13 08:43:18;;;;;;;5.00;1.65;;;19.70;99.90;;;;;;5053928;28;20024;-75
2023/05/13 08:45:46;;;;;;;3.13;1.50;;;20.10;99.90;;;;;;5053604;28;20040;-75
2023/05/13 08:48:14;;;;;;;2.78;1.30;;;20.00;99.90;;;;;;5053447;28;20032;-75
2023/05/13 08:50:41;;;;;;;3.58;1.52;;;20.00;99.90;;;;;;5035968;28;20024;-74
2023/05/13 08:53:06;;;;;;;7.40;1.90;;;20.10;99.90;;;;;;5035558;28;20362;-74
2023/05/13 08:55:32;;;;;;;6.43;2.15;;;20.40;99.90;;;;;;5053444;28;20021;-74
2023/05/13 08:57:58;;;;;;;6.03;1.90;;;20.20;99.90;;;;;;5053408;28;20056;-74
2023/05/13 09:00:24;;;;;;;4.07;2.13;;;20.90;99.90;;;;;;5053832;28;20017;-75
2023/05/13 09:02:50;;;;;;;8.90;1.88;;;20.20;99.90;;;;;;5053656;28;20120;-75
2023/05/13 09:05:17;;;;;;;3.53;1.95;;;20.20;99.90;;;;;;5053487;28;20063;-75
2023/05/13 09:07:43;;;;;;;4.25;1.88;;;20.10;99.90;;;;;;5035629;28;20454;-76
2023/05/13 09:10:09;;;;;;;2.55;1.85;;;20.20;99.90;;;;;;5053236;28;20025;-76
2023/05/13 09:12:44;;;;;;;4.25;1.95;;;20.20;99.90;;;;;;5053425;28;20063;-77
2023/05/13 09:15:21;;;;;;;7.40;2.10;;;20.30;99.90;;;;;;5040747;28;20025;-77
2023/05/13 09:17:50;;;;;;;6.55;2.97;;;20.30;99.90;;;;;;5058141;28;20430;-77
2023/05/13 09:20:18;;;;;;;5.65;2.15;;;20.30;99.90;;;;;;5058532;28;20472;-77
2023/05/13 09:22:47;;;;;;;4.13;1.58;;;20.50;99.90;;;;;;5058463;28;20017;-77
2023/05/13 09:25:15;;;;;;;6.50;1.75;;;;;;;;;;5058037;28;20074;-75
2023/05/13 09:27:46;;;;;;;6.07;1.50;;;20.70;99.90;;;;;;5057472;28;20086;-76
2023/05/13 09:30:12;;;;;;;4.28;1.40;;;20.80;99.90;;;;;;5058596;28;20040;-76
2023/05/13 09:32:39;;;;;;;3.17;1.13;;;20.90;99.90;;;;;;5040379;28;20025;-77
2023/05/13 09:35:15;;;;;;;3.85;1.73;;;21.00;99.90;;;;;;5057512;28;20040;-76
2023/05/13 09:37:50;;;;;;;5.10;1.70;;;21.10;99.90;;;;;;5057314;28;20480;-77
2023/05/13 09:40:16;;;;;;;4.43;2.05;;;21.20;99.90;;;;;;5039450;28;20369;-76
2023/05/13 09:42:46;;;;;;;4.30;1.60;;;21.20;99.90;;;;;;5055533;28;20053;-76
2023/05/13 09:45:13;;;;;;;2.13;1.58;;;21.40;99.90;;;;;;5038486;28;20071;-77
2023/05/13 09:47:40;;;;;;;4.60;1.20;;;21.40;99.90;;;;;;5057490;28;20025;-77
2023/05/13 09:50:07;;;;;;;4.57;1.70;;;21.40;99.90;;;;;;5039045;28;20033;-77
2023/05/13 09:52:35;;;;;;;2.55;1.70;;;21.50;99.90;;;;;;5057518;28;20037;-77
2023/05/13 09:55:03;;;;;;;3.75;1.52;;;21.30;99.90;;;;;;5058076;28;20111;-76
2023/05/13 09:57:33;;;;;;;3.95;1.55;;;21.60;99.90;;;;;;5057682;28;20020;-76
2023/05/13 09:59:59;;;;;;;2.47;1.50;;;21.60;99.90;;;;;;5038630;28;20021;-77
2023/05/13 10:02:26;;;;;;;3.15;1.27;;;21.90;99.90;;;;;;5056713;28;20025;-76
2023/05/13 10:04:54;;;;;;;4.10;1.35;;;21.90;99.90;;;;;;5057417;28;20057;-77
2023/05/13 10:07:24;;;;;;;2.58;1.08;;;22.20;99.90;;;;;;5056631;28;20396;-76
2023/05/13 10:09:53;;;;;;;2.53;1.20;;;22.20;99.90;;;;;;5060194;28;20078;-78
2023/05/13 10:12:19;;;;;;;;;;;22.30;99.90;;;;;;5043355;28;20033;-78
2023/05/13 10:14:48;;;;;;;4.85;2.05;;;22.40;99.90;;;;;;5058332;28;19916;-75
2023/05/13 10:17:14;;;;;;;;;;;22.30;99.90;;;;;;5057436;28;20095;-75
2023/05/13 10:19:40;;;;;;;2.67;1.08;;;22.30;99.90;;;;;;5056504;28;19955;-76
2023/05/13 10:22:06;;;;;;;3.10;1.77;;;22.50;99.90;;;;;;5039620;28;20025;-78
2023/05/13 10:24:33;;;;;;;5.35;1.83;;;22.60;99.90;;;;;;5056939;28;20089;-76
2023/05/13 10:27:01;;;;;;;3.08;1.65;;;22.70;99.90;;;;;;5038587;28;20033;-75
2023/05/13 10:29:28;;;;;;;3.45;1.58;;;22.70;99.90;;;;;;5056492;28;20047;-76
2023/05/13 10:31:54;;;;;;;2.70;1.42;;;22.80;99.90;;;;;;5057183;28;20029;-76
2023/05/13 10:34:21;;;;;;;2.78;1.42;;;23.10;99.90;;;;;;5038782;28;20096;-76
2023/05/13 10:37:24;;;;;;;3.20;1.95;;;23.00;99.90;;;;;;5056683;28;20511;-77
2023/05/13 10:40:27;;;;;;;4.60;2.33;;;23.10;99.90;;;;;;5055964;28;20024;-75
2023/05/13 10:43:17;;;;;;;5.95;1.63;;;23.00;99.90;;;;;;5056532;28;20141;-75
2023/05/13 10:45:50;;;;;;;4.18;1.23;;;23.30;99.90;;;;;;5056003;28;20039;-75
2023/05/13 10:48:17;;;;;;;4.97;1.80;;;23.40;99.30;;;;;;5055817;28;20441;-75
2023/05/13 10:50:53;;;;;;;1.77;1.30;;;23.40;99.90;;;;;;5038412;28;20049;-75
2023/05/13 10:53:23;;;;;;;3.10;1.55;;;23.60;99.90;;;;;;5055812;28;20104;-76
2023/05/13 10:55:56;;;;;;;6.75;1.58;;;23.50;98.20;;;;;;5038031;28;20395;-75
2023/05/13 10:58:31;;;;;;;3.05;0.98;;;23.60;99.90;;;;;;5037674;28;20013;-75
2023/05/13 11:01:13;;;;;;;2.15;1.38;;;23.60;99.40;;;;;;5037996;28;20018;-76
2023/05/13 11:03:39;;;;;;;5.07;1.13;;;23.70;99.90;;;;;;5037424;28;20479;-75
2023/05/13 11:06:20;;;;;;;2.65;1.65;;;24.00;99.90;;;;;;5055709;28;20075;-75
2023/05/13 11:08:50;;;;;;;2.70;1.10;;;23.80;98.00;;;;;;5055284;28;20376;-75
2023/05/13 11:11:31;;;;;;;2.40;1.20;;;23.80;99.50;;;;;;5055593;28;20104;-75
2023/05/13 11:14:20;;;;;;;2.53;1.10;;;23.90;99.70;;;;;;5037337;28;20056;-75
2023/05/13 11:16:48;;;;;;;;;;;23.90;99.40;;;;;;5055639;28;20511;-75
2023/05/13 11:19:20;;;;;;;2.75;1.45;;;24.00;95.70;;;;;;5037274;28;20001;-75
2023/05/13 11:21:50;;;;;;;2.20;1.35;;;24.00;97.90;;;;;;5055146;28;20025;-75
2023/05/13 11:24:17;;;;;;;4.32;1.67;;;24.20;97.80;;;;;;5037088;28;20040;-75
2023/05/13 11:26:51;;;;;;;5.45;2.10;;;24.50;97.50;;;;;;5055411;28;20476;-75
2023/05/13 11:29:40;;;;;;;3.58;1.65;;;24.50;96.10;;;;;;5036972;28;20035;-75
2023/05/13 11:32:06;;;;;;;4.50;2.33;;;24.60;95.90;;;;;;5055742;28;20071;-75
2023/05/13 11:34:32;;;;;;;3.05;1.88;;;24.70;98.20;;;;;;5054776;28;20021;-75
2023/05/13 11:37:09;;;;;;;6.72;1.50;;;24.80;96.90;;;;;;5035946;28;20025;-75
2023/05/13 11:39:38;;;;;;;6.72;2.30;;;24.80;96.80;;;;;;5056223;28;20039;-75
2023/05/13 11:42:13;;;;;;;3.95;1.48;;;25.10;97.30;;;;;;5057074;28;20066;-77
2023/05/13 11:44:48;;;;;;;3.33;0.90;;;25.10;97.70;;;;;;5057894;28;20033;-77
2023/05/13 11:47:23;;;;;;;3.95;1.30;;;25.30;96.70;;;;;;5056965;28;20504;-77
2023/05/13 11:49:50;;;;;;;3.15;1.30;;;25.40;94.90;;;;;;5056639;28;20029;-77
2023/05/13 11:52:18;;;;;;;4.60;1.27;;;25.50;93.90;;;;;;5056620;28;20055;-77
2023/05/13 11:54:49;;;;;;;2.08;1.20;;;25.60;93.90;;;;;;5037884;28;20483;-77
2023/05/13 11:57:18;;;;;;;3.78;1.55;;;25.60;94.10;;;;;;5055509;28;20049;-78
2023/05/13 12:00:00;;;;;;;1.42;0.68;;;25.70;92.70;;;;;;5037768;28;20475;-77
2023/05/13 12:02:44;;;;;;;4.00;1.00;;;25.80;93.20;;;;;;5056940;28;20024;-78
2023/05/13 12:05:11;;;;;;;3.53;0.90;;;26.00;94.10;;;;;;5055888;28;20036;-77
2023/05/13 12:07:38;;;;;;;2.58;0.93;;;26.20;88.80;;;;;;5055670;28;20020;-77
2023/05/13 12:10:05;;;;;;;5.38;1.10;;;26.20;89.50;;;;;;5055257;28;20033;-77
2023/05/13 12:12:34;;;;;;;2.78;0.90;;;26.40;91.00;;;;;;5055243;28;20028;-77
2023/05/13 12:15:02;;;;;;;2.40;0.88;;;26.50;90.50;;;;;;5055778;28;20052;-77
2023/05/13 12:17:30;;;;;;;4.20;1.10;;;26.50;89.90;;;;;;5055386;28;20379;-77
2023/05/13 12:20:05;;;;;;;6.97;1.33;;;26.50;89.90;;;;;;5055091;28;20017;-77
2023/05/13 12:22:31;;;;;;;2.90;0.88;;;26.70;88.40;;;;;;5055402;28;20017;-77
2023/05/13 12:25:00;;;;;;;2.10;0.47;;;26.80;89.70;;;;;;5055694;28;20107;-77
2023/05/13 12:27:26;;;;;;;3.85;0.77;;;27.30;85.50;;;;;;5055304;28;20492;-77
2023/05/13 12:29:55;;;;;;;2.28;0.82;;;27.20;85.80;;;;;;5055747;28;20024;-77
2023/05/13 12:32:23;;;;;;;1.67;0.85;;;27.50;88.40;;;;;;5037747;28;20120;-77
2023/05/13 12:34:50;;;;;;;1.70;1.08;;;27.80;88.30;;;;;;5054866;28;20036;-77
2023/05/13 12:37:16;;;;;;;2.78;0.68;;;27.80;82.00;;;;;;5055024;28;20388;-76
2023/05/13 12:39:43;;;;;;;0.90;0.57;;;27.70;78.50;;;;;;5035214;28;20017;-77
2023/05/13 12:42:16;;;;;;;5.50;1.13;;;27.70;82.60;;;;;;5053799;28;20053;-77
2023/05/13 12:44:45;;;;;;;2.50;0.40;;;27.70;81.00;;;;;;5055150;28;20471;-77
2023/05/13 12:47:13;;;;;;;5.20;0.60;;;27.90;81.20;;;;;;5053468;28;20483;-77
2023/05/13 12:49:55;;;;;;;1.70;0.65;;;28.20;79.70;;;;;;5054596;28;20052;-77